sensor_id;sensor_type;location;lat;lon;timestamp;temperature;humidity
7388;DHT22;3735;50.136;11.062;2023-12-07T00:02:13;1.30;99.90
7388;DHT22;3735;50.136;11.062;2023-12-07T00:04:39;1.30;99.90
7388;DHT22;3735;50.136;11.062;2023-12-07T00:07:04;1.30;99.90
7388;DHT22;3735;50.136;11.062;2023-12-07T00:09:30;1.30;99.90
7388;DHT22;3735;50.136;11.062;2023-12-07T00:11:56;1.30;99.90
7388;DHT22;3735;50.136;11.062;2023-12-07T00:14:22;1.30;99.90
7388;DHT22;3735;50.136;11.062;2023-12-07T00:16:47;1.40;99.90
7388;DHT22;3735;50.136;11.062;2023-12-07T00:19:14;1.40;99.90
7388;DHT22;3735;50.136;11.062;2023-12-07T00:21:40;1.40;99.90
7388;DHT22;3735;50.136;11.062;2023-12-07T00:24:06;1.40;99.90
7388;DHT22;3735;50.136;11.062;2023-12-07T00:26:31;1.40;99.90
7388;DHT22;3735;50.136;11.062;2023-12-07T00:28:57;1.40;99.90
7388;DHT22;3735;50.136;11.062;2023-12-07T00:31:23;1.50;99.90
7388;DHT22;3735;50.136;11.062;2023-12-07T00:33:49;1.40;99.90
7388;DHT22;3735;50.136;11.062;2023-12-07T00:36:15;1.40;99.90
7388;DHT22;3735;50.136;11.062;2023-12-07T00:38:40;1.40;99.90
7388;DHT22;3735;50.136;11.062;2023-12-07T00:41:06;1.30;99.90
7388;DHT22;3735;50.136;11.062;2023-12-07T00:43:32;1.30;99.90
7388;DHT22;3735;50.136;11.062;2023-12-07T00:45:58;1.30;99.90
7388;DHT22;3735;50.136;11.062;2023-12-07T00:48:25;1.20;99.90
7388;DHT22;3735;50.136;11.062;2023-12-07T00:50:51;1.20;99.90
7388;DHT22;3735;50.136;11.062;2023-12-07T00:53:17;1.10;99.90
7388;DHT22;3735;50.136;11.062;2023-12-07T00:55:43;1.00;99.90
7388;DHT22;3735;50.136;11.062;2023-12-07T00:58:08;0.90;99.90
7388;DHT22;3735;50.136;11.062;2023-12-07T01:00:34;0.80;99.90
7388;DHT22;3735;50.136;11.062;2023-12-07T01:03:00;0.70;99.90
7388;DHT22;3735;50.136;11.062;2023-12-07T01:05:26;0.60;99.90
7388;DHT22;3735;50.136;11.062;2023-12-07T01:07:51;0.50;99.90
7388;DHT22;3735;50.136;11.062;2023-12-07T01:10:17;0.60;99.90
7388;DHT22;3735;50.136;11.062;2023-12-07T01:12:43;0.70;99.90
7388;DHT22;3735;50.136;11.062;2023-12-07T01:15:09;0.80;99.90
7388;DHT22;3735;50.136;11.062;2023-12-07T01:17:34;0.80;99.90
7388;DHT22;3735;50.136;11.062;2023-12-07T01:20:00;0.80;99.90
7388;DHT22;3735;50.136;11.062;2023-12-07T01:22:29;0.70;99.90
7388;DHT22;3735;50.136;11.062;2023-12-07T01:24:55;0.80;99.90
7388;DHT22;3735;50.136;11.062;2023-12-07T01:27:20;0.80;99.90
7388;DHT22;3735;50.136;11.062;2023-12-07T01:29:46;0.80;99.90
7388;DHT22;3735;50.136;11.062;2023-12-07T01:32:13;0.90;99.90
7388;DHT22;3735;50.136;11.062;2023-12-07T01:34:39;0.90;99.90
7388;DHT22;3735;50.136;11.062;2023-12-07T01:37:05;0.90;99.90
7388;DHT22;3735;50.136;11.062;2023-12-07T01:39:31;1.00;99.90
7388;DHT22;3735;50.136;11.062;2023-12-07T01:41:57;1.00;99.90
7388;DHT22;3735;50.136;11.062;2023-12-07T01:44:22;1.10;99.90
7388;DHT22;3735;50.136;11.062;2023-12-07T01:46:48;1.20;99.90
7388;DHT22;3735;50.136;11.062;2023-12-07T01:49:14;1.20;99.90
7388;DHT22;3735;50.136;11.062;2023-12-07T01:51:40;1.20;99.90
7388;DHT22;3735;50.136;11.062;2023-12-07T01:54:06;1.20;99.90
7388;DHT22;3735;50.136;11.062;2023-12-07T01:56:31;1.20;99.90
7388;DHT22;3735;50.136;11.062;2023-12-07T01:58:57;1.20;99.90
7388;DHT22;3735;50.136;11.062;2023-12-07T02:01:23;1.30;99.90
7388;DHT22;3735;50.136;11.062;2023-12-07T02:03:49;1.30;99.90
7388;DHT22;3735;50.136;11.062;2023-12-07T02:06:16;1.30;99.90
7388;DHT22;3735;50.136;11.062;2023-12-07T02:08:44;1.30;99.90
7388;DHT22;3735;50.136;11.062;2023-12-07T02:11:10;1.30;99.90
7388;DHT22;3735;50.136;11.062;2023-12-07T02:13:40;1.30;99.90
7388;DHT22;3735;50.136;11.062;2023-12-07T02:22:03;1.30;99.90
7388;DHT22;3735;50.136;11.062;2023-12-07T02:24:37;1.30;99.90
7388;DHT22;3735;50.136;11.062;2023-12-07T02:27:11;1.30;99.90
7388;DHT22;3735;50.136;11.062;2023-12-07T02:29:36;1.30;99.90
7388;DHT22;3735;50.136;11.062;2023-12-07T02:32:02;1.40;99.90
7388;DHT22;3735;50.136;11.062;2023-12-07T02:34:29;1.40;99.90
7388;DHT22;3735;50.136;11.062;2023-12-07T02:36:57;1.40;99.90
7388;DHT22;3735;50.136;11.062;2023-12-07T02:39:25;1.40;99.90
7388;DHT22;3735;50.136;11.062;2023-12-07T02:41:52;1.40;99.90
7388;DHT22;3735;50.136;11.062;2023-12-07T02:44:19;1.40;99.90
7388;DHT22;3735;50.136;11.062;2023-12-07T02:46:45;1.40;99.90
7388;DHT22;3735;50.136;11.062;2023-12-07T02:49:10;1.30;99.90
7388;DHT22;3735;50.136;11.062;2023-12-07T02:51:36;1.40;99.90
7388;DHT22;3735;50.136;11.062;2023-12-07T02:54:02;1.40;99.90
7388;DHT22;3735;50.136;11.062;2023-12-07T02:56:28;1.40;99.90
7388;DHT22;3735;50.136;11.062;2023-12-07T02:58:54;1.40;99.90
7388;DHT22;3735;50.136;11.062;2023-12-07T03:01:20;1.40;99.90
7388;DHT22;3735;50.136;11.062;2023-12-07T03:03:45;1.40;99.90
7388;DHT22;3735;50.136;11.062;2023-12-07T03:06:11;1.40;99.90
7388;DHT22;3735;50.136;11.062;2023-12-07T03:08:37;1.40;99.90
7388;DHT22;3735;50.136;11.062;2023-12-07T03:11:03;1.40;99.90
7388;DHT22;3735;50.136;11.062;2023-12-07T03:13:30;1.40;99.90
7388;DHT22;3735;50.136;11.062;2023-12-07T03:15:56;1.40;99.90
7388;DHT22;3735;50.136;11.062;2023-12-07T03:18:22;1.30;99.90
7388;DHT22;3735;50.136;11.062;2023-12-07T03:20:47;1.30;99.90
7388;DHT22;3735;50.136;11.062;2023-12-07T03:23:15;1.30;99.90
7388;DHT22;3735;50.136;11.062;2023-12-07T03:25:41;1.30;99.90
7388;DHT22;3735;50.136;11.062;2023-12-07T03:28:07;1.30;99.90
7388;DHT22;3735;50.136;11.062;2023-12-07T03:30:33;1.30;99.90
7388;DHT22;3735;50.136;11.062;2023-12-07T03:32:59;1.30;99.90
7388;DHT22;3735;50.136;11.062;2023-12-07T03:35:24;1.40;99.90
7388;DHT22;3735;50.136;11.062;2023-12-07T03:37:50;1.40;99.90
7388;DHT22;3735;50.136;11.062;2023-12-07T03:40:16;1.30;99.90
7388;DHT22;3735;50.136;11.062;2023-12-07T03:42:42;1.30;99.90
7388;DHT22;3735;50.136;11.062;2023-12-07T03:45:09;1.30;99.90
7388;DHT22;3735;50.136;11.062;2023-12-07T03:47:35;1.30;99.90
7388;DHT22;3735;50.136;11.062;2023-12-07T03:50:00;1.30;99.90
7388;DHT22;3735;50.136;11.062;2023-12-07T03:52:26;1.30;99.90
7388;DHT22;3735;50.136;11.062;2023-12-07T03:54:52;1.30;99.90
7388;DHT22;3735;50.136;11.062;2023-12-07T03:57:18;1.40;99.90
7388;DHT22;3735;50.136;11.062;2023-12-07T03:59:44;1.40;99.90
7388;DHT22;3735;50.136;11.062;2023-12-07T04:02:12;1.40;99.90
7388;DHT22;3735;50.136;11.062;2023-12-07T04:04:37;1.40;99.90
7388;DHT22;3735;50.136;11.062;2023-12-07T04:07:04;1.50;99.90
7388;DHT22;3735;50.136;11.062;2023-12-07T04:09:29;1.50;99.90
7388;DHT22;3735;50.136;11.062;2023-12-07T04:11:56;1.50;99.90
7388;DHT22;3735;50.136;11.062;2023-12-07T04:14:22;1.50;99.90
7388;DHT22;3735;50.136;11.062;2023-12-07T04:16:47;1.50;99.90
7388;DHT22;3735;50.136;11.062;2023-12-07T04:19:13;1.50;99.90
7388;DHT22;3735;50.136;11.062;2023-12-07T04:21:39;1.50;99.90
7388;DHT22;3735;50.136;11.062;2023-12-07T04:24:05;1.50;99.90
7388;DHT22;3735;50.136;11.062;2023-12-07T04:26:31;1.50;99.90
7388;DHT22;3735;50.136;11.062;2023-12-07T04:28:57;1.60;99.90
7388;DHT22;3735;50.136;11.062;2023-12-07T04:31:22;1.60;99.90
7388;DHT22;3735;50.136;11.062;2023-12-07T04:33:48;1.60;99.90
7388;DHT22;3735;50.136;11.062;2023-12-07T04:36:14;1.60;99.90
7388;DHT22;3735;50.136;11.062;2023-12-07T04:38:39;1.50;99.90
7388;DHT22;3735;50.136;11.062;2023-12-07T04:41:05;1.60;99.90
7388;DHT22;3735;50.136;11.062;2023-12-07T04:43:31;1.60;99.90
7388;DHT22;3735;50.136;11.062;2023-12-07T04:45:57;1.60;99.90
7388;DHT22;3735;50.136;11.062;2023-12-07T04:48:23;1.60;99.90
7388;DHT22;3735;50.136;11.062;2023-12-07T04:50:48;1.60;99.90
7388;DHT22;3735;50.136;11.062;2023-12-07T04:53:14;1.60;99.90
7388;DHT22;3735;50.136;11.062;2023-12-07T04:55:40;1.60;99.90
7388;DHT22;3735;50.136;11.062;2023-12-07T04:58:08;1.60;99.90
7388;DHT22;3735;50.136;11.062;2023-12-07T05:00:34;1.60;99.90
7388;DHT22;3735;50.136;11.062;2023-12-07T05:02:59;1.60;99.90
7388;DHT22;3735;50.136;11.062;2023-12-07T05:05:25;1.60;99.90
7388;DHT22;3735;50.136;11.062;2023-12-07T05:07:51;1.60;99.90
7388;DHT22;3735;50.136;11.062;2023-12-07T05:10:17;1.60;99.90
7388;DHT22;3735;50.136;11.062;2023-12-07T05:12:43;1.60;99.90
7388;DHT22;3735;50.136;11.062;2023-12-07T05:15:08;1.60;99.90
7388;DHT22;3735;50.136;11.062;2023-12-07T05:17:34;1.60;99.90
7388;DHT22;3735;50.136;11.062;2023-12-07T05:20:00;1.60;99.90
7388;DHT22;3735;50.136;11.062;2023-12-07T05:22:27;1.60;99.90
7388;DHT22;3735;50.136;11.062;2023-12-07T05:24:54;1.60;99.90
7388;DHT22;3735;50.136;11.062;2023-12-07T05:27:20;1.60;99.90
7388;DHT22;3735;50.136;11.062;2023-12-07T05:29:45;1.60;99.90
7388;DHT22;3735;50.136;11.062;2023-12-07T05:32:11;1.60;99.90
7388;DHT22;3735;50.136;11.062;2023-12-07T05:34:37;1.50;99.90
7388;DHT22;3735;50.136;11.062;2023-12-07T05:37:04;1.50;99.90
7388;DHT22;3735;50.136;11.062;2023-12-07T05:39:29;1.50;99.90
7388;DHT22;3735;50.136;11.062;2023-12-07T05:41:55;1.50;99.90
7388;DHT22;3735;50.136;11.062;2023-12-07T05:44:21;1.50;99.90
7388;DHT22;3735;50.136;11.062;2023-12-07T05:46:48;1.50;99.90
7388;DHT22;3735;50.136;11.062;2023-12-07T05:49:14;1.50;99.90
7388;DHT22;3735;50.136;11.062;2023-12-07T05:51:40;1.50;99.90
7388;DHT22;3735;50.136;11.062;2023-12-07T05:54:06;1.50;99.90
7388;DHT22;3735;50.136;11.062;2023-12-07T05:56:32;1.50;99.90
7388;DHT22;3735;50.136;11.062;2023-12-07T05:58:58;1.50;99.90
7388;DHT22;3735;50.136;11.062;2023-12-07T06:01:24;1.50;99.90
7388;DHT22;3735;50.136;11.062;2023-12-07T06:03:50;1.40;99.90
7388;DHT22;3735;50.136;11.062;2023-12-07T06:06:16;1.40;99.90
7388;DHT22;3735;50.136;11.062;2023-12-07T06:08:42;1.40;99.90
7388;DHT22;3735;50.136;11.062;2023-12-07T06:11:08;1.40;99.90
7388;DHT22;3735;50.136;11.062;2023-12-07T06:13:33;1.40;99.90
7388;DHT22;3735;50.136;11.062;2023-12-07T06:15:59;1.40;99.90
7388;DHT22;3735;50.136;11.062;2023-12-07T06:18:26;1.40;99.90
7388;DHT22;3735;50.136;11.062;2023-12-07T06:20:53;1.40;99.90
7388;DHT22;3735;50.136;11.062;2023-12-07T06:23:18;1.40;99.90
7388;DHT22;3735;50.136;11.062;2023-12-07T06:25:45;1.40;99.90
7388;DHT22;3735;50.136;11.062;2023-12-07T06:28:11;1.30;99.90
7388;DHT22;3735;50.136;11.062;2023-12-07T06:30:37;1.40;99.90
7388;DHT22;3735;50.136;11.062;2023-12-07T06:33:03;1.40;99.90
7388;DHT22;3735;50.136;11.062;2023-12-07T06:35:29;1.40;99.90
7388;DHT22;3735;50.136;11.062;2023-12-07T06:37:56;1.30;99.90
7388;DHT22;3735;50.136;11.062;2023-12-07T06:40:22;1.30;99.90
7388;DHT22;3735;50.136;11.062;2023-12-07T06:42:47;1.30;99.90
7388;DHT22;3735;50.136;11.062;2023-12-07T06:45:16;1.30;99.90
7388;DHT22;3735;50.136;11.062;2023-12-07T06:47:41;1.30;99.90
7388;DHT22;3735;50.136;11.062;2023-12-07T06:50:10;1.30;99.90
7388;DHT22;3735;50.136;11.062;2023-12-07T06:52:37;1.20;99.90
7388;DHT22;3735;50.136;11.062;2023-12-07T06:55:03;1.20;99.90
7388;DHT22;3735;50.136;11.062;2023-12-07T06:57:30;1.20;99.90
7388;DHT22;3735;50.136;11.062;2023-12-07T06:59:55;1.20;99.90
7388;DHT22;3735;50.136;11.062;2023-12-07T07:02:21;1.20;99.90
7388;DHT22;3735;50.136;11.062;2023-12-07T07:04:48;1.20;99.90
7388;DHT22;3735;50.136;11.062;2023-12-07T07:07:15;1.20;99.90
7388;DHT22;3735;50.136;11.062;2023-12-07T07:09:41;1.20;99.90
7388;DHT22;3735;50.136;11.062;2023-12-07T07:12:07;1.30;99.90
7388;DHT22;3735;50.136;11.062;2023-12-07T07:14:36;1.30;99.90
7388;DHT22;3735;50.136;11.062;2023-12-07T07:17:02;1.40;99.90
7388;DHT22;3735;50.136;11.062;2023-12-07T07:19:30;1.30;99.90
7388;DHT22;3735;50.136;11.062;2023-12-07T07:22:02;1.30;99.90
7388;DHT22;3735;50.136;11.062;2023-12-07T07:24:27;1.30;99.90
7388;DHT22;3735;50.136;11.062;2023-12-07T07:26:53;1.30;99.90
7388;DHT22;3735;50.136;11.062;2023-12-07T07:29:19;1.30;99.90
7388;DHT22;3735;50.136;11.062;2023-12-07T07:31:45;1.30;99.90
7388;DHT22;3735;50.136;11.062;2023-12-07T07:34:10;1.30;99.90
7388;DHT22;3735;50.136;11.062;2023-12-07T07:36:36;1.40;99.90
7388;DHT22;3735;50.136;11.062;2023-12-07T07:39:03;1.40;99.90
7388;DHT22;3735;50.136;11.062;2023-12-07T07:41:30;1.50;99.90
7388;DHT22;3735;50.136;11.062;2023-12-07T07:43:56;1.60;99.90
7388;DHT22;3735;50.136;11.062;2023-12-07T07:46:22;1.60;99.90
7388;DHT22;3735;50.136;11.062;2023-12-07T07:48:50;1.70;99.90
7388;DHT22;3735;50.136;11.062;2023-12-07T07:51:16;1.70;99.90
7388;DHT22;3735;50.136;11.062;2023-12-07T07:53:41;1.70;99.90
7388;DHT22;3735;50.136;11.062;2023-12-07T07:56:08;1.70;99.90
7388;DHT22;3735;50.136;11.062;2023-12-07T07:58:34;1.70;99.90
7388;DHT22;3735;50.136;11.062;2023-12-07T08:01:00;1.70;99.90
7388;DHT22;3735;50.136;11.062;2023-12-07T08:03:26;1.70;99.90
7388;DHT22;3735;50.136;11.062;2023-12-07T08:05:51;1.60;99.90
7388;DHT22;3735;50.136;11.062;2023-12-07T08:08:17;1.70;99.90
7388;DHT22;3735;50.136;11.062;2023-12-07T08:10:43;1.70;99.90
7388;DHT22;3735;50.136;11.062;2023-12-07T08:13:09;1.70;99.90
7388;DHT22;3735;50.136;11.062;2023-12-07T08:15:35;1.70;99.90
7388;DHT22;3735;50.136;11.062;2023-12-07T08:18:01;1.80;99.90
7388;DHT22;3735;50.136;11.062;2023-12-07T08:20:27;1.80;99.90
7388;DHT22;3735;50.136;11.062;2023-12-07T08:22:53;1.80;99.90
7388;DHT22;3735;50.136;11.062;2023-12-07T08:25:19;1.80;99.90
7388;DHT22;3735;50.136;11.062;2023-12-07T08:27:45;1.80;99.90
7388;DHT22;3735;50.136;11.062;2023-12-07T08:30:15;1.80;99.90
7388;DHT22;3735;50.136;11.062;2023-12-07T08:32:40;1.90;99.90
7388;DHT22;3735;50.136;11.062;2023-12-07T08:35:06;1.80;99.90
7388;DHT22;3735;50.136;11.062;2023-12-07T08:37:33;1.90;99.90
7388;DHT22;3735;50.136;11.062;2023-12-07T08:40:02;2.00;99.90
7388;DHT22;3735;50.136;11.062;2023-12-07T08:42:37;2.00;99.90
7388;DHT22;3735;50.136;11.062;2023-12-07T08:45:03;2.10;99.90
7388;DHT22;3735;50.136;11.062;2023-12-07T08:47:29;2.10;99.90
7388;DHT22;3735;50.136;11.062;2023-12-07T08:49:57;2.20;99.90
7388;DHT22;3735;50.136;11.062;2023-12-07T08:52:22;2.20;99.90
7388;DHT22;3735;50.136;11.062;2023-12-07T08:54:48;2.20;99.90
7388;DHT22;3735;50.136;11.062;2023-12-07T08:57:14;2.20;99.90
7388;DHT22;3735;50.136;11.062;2023-12-07T08:59:40;2.20;99.90
7388;DHT22;3735;50.136;11.062;2023-12-07T09:02:05;2.30;99.90
7388;DHT22;3735;50.136;11.062;2023-12-07T09:04:31;2.30;99.90
7388;DHT22;3735;50.136;11.062;2023-12-07T09:06:57;2.30;99.90
7388;DHT22;3735;50.136;11.062;2023-12-07T09:09:23;2.30;99.90
7388;DHT22;3735;50.136;11.062;2023-12-07T09:11:52;2.30;99.90
7388;DHT22;3735;50.136;11.062;2023-12-07T09:14:18;2.20;99.90
7388;DHT22;3735;50.136;11.062;2023-12-07T09:16:45;2.20;99.90
7388;DHT22;3735;50.136;11.062;2023-12-07T09:19:14;2.20;99.90
7388;DHT22;3735;50.136;11.062;2023-12-07T09:21:40;2.20;99.90
7388;DHT22;3735;50.136;11.062;2023-12-07T09:24:10;2.10;99.90
7388;DHT22;3735;50.136;11.062;2023-12-07T09:26:36;2.10;99.90
7388;DHT22;3735;50.136;11.062;2023-12-07T09:29:02;2.20;99.90
7388;DHT22;3735;50.136;11.062;2023-12-07T09:31:31;2.30;99.90
7388;DHT22;3735;50.136;11.062;2023-12-07T09:33:56;2.40;99.90
7388;DHT22;3735;50.136;11.062;2023-12-07T09:36:22;2.60;99.90
7388;DHT22;3735;50.136;11.062;2023-12-07T09:38:49;2.80;99.90
7388;DHT22;3735;50.136;11.062;2023-12-07T09:41:16;3.10;99.90
7388;DHT22;3735;50.136;11.062;2023-12-07T09:43:42;3.20;99.90
7388;DHT22;3735;50.136;11.062;2023-12-07T09:46:08;3.50;99.90
7388;DHT22;3735;50.136;11.062;2023-12-07T09:48:36;3.90;99.90
7388;DHT22;3735;50.136;11.062;2023-12-07T09:51:04;4.30;99.90
7388;DHT22;3735;50.136;11.062;2023-12-07T09:53:33;4.50;99.90
7388;DHT22;3735;50.136;11.062;2023-12-07T09:56:00;4.30;99.90
7388;DHT22;3735;50.136;11.062;2023-12-07T09:58:27;4.00;99.90
7388;DHT22;3735;50.136;11.062;2023-12-07T10:00:52;3.70;99.90
7388;DHT22;3735;50.136;11.062;2023-12-07T10:03:23;3.40;99.90
7388;DHT22;3735;50.136;11.062;2023-12-07T10:05:59;3.20;99.90
7388;DHT22;3735;50.136;11.062;2023-12-07T10:08:30;3.10;99.90
7388;DHT22;3735;50.136;11.062;2023-12-07T10:11:05;3.20;99.90
7388;DHT22;3735;50.136;11.062;2023-12-07T10:13:33;3.10;99.90
7388;DHT22;3735;50.136;11.062;2023-12-07T10:16:13;3.10;99.90
7388;DHT22;3735;50.136;11.062;2023-12-07T10:18:41;3.20;99.90
7388;DHT22;3735;50.136;11.062;2023-12-07T10:21:08;3.40;99.90
7388;DHT22;3735;50.136;11.062;2023-12-07T10:23:37;3.50;99.90
7388;DHT22;3735;50.136;11.062;2023-12-07T10:26:07;3.60;99.90
7388;DHT22;3735;50.136;11.062;2023-12-07T10:28:36;3.70;99.90
7388;DHT22;3735;50.136;11.062;2023-12-07T10:31:03;3.60;99.90
7388;DHT22;3735;50.136;11.062;2023-12-07T10:33:29;3.60;99.90
7388;DHT22;3735;50.136;11.062;2023-12-07T10:35:55;3.60;99.90
7388;DHT22;3735;50.136;11.062;2023-12-07T10:38:21;3.60;99.90
7388;DHT22;3735;50.136;11.062;2023-12-07T10:40:47;3.60;99.90
7388;DHT22;3735;50.136;11.062;2023-12-07T10:43:17;3.70;99.90
7388;DHT22;3735;50.136;11.062;2023-12-07T10:45:47;3.80;99.90
7388;DHT22;3735;50.136;11.062;2023-12-07T10:48:16;4.00;99.90
7388;DHT22;3735;50.136;11.062;2023-12-07T10:50:46;4.20;99.90
7388;DHT22;3735;50.136;11.062;2023-12-07T10:53:21;4.40;99.90
7388;DHT22;3735;50.136;11.062;2023-12-07T10:56:00;4.40;99.90
7388;DHT22;3735;50.136;11.062;2023-12-07T10:58:26;4.40;99.90
7388;DHT22;3735;50.136;11.062;2023-12-07T11:00:53;4.40;99.90
7388;DHT22;3735;50.136;11.062;2023-12-07T11:03:21;4.30;99.90
7388;DHT22;3735;50.136;11.062;2023-12-07T11:05:50;4.00;99.90
7388;DHT22;3735;50.136;11.062;2023-12-07T11:08:31;3.80;99.90
7388;DHT22;3735;50.136;11.062;2023-12-07T11:11:06;3.80;99.90
7388;DHT22;3735;50.136;11.062;2023-12-07T11:13:38;3.90;99.90
7388;DHT22;3735;50.136;11.062;2023-12-07T11:16:11;4.30;99.90
7388;DHT22;3735;50.136;11.062;2023-12-07T11:18:36;5.20;99.90
7388;DHT22;3735;50.136;11.062;2023-12-07T11:21:02;5.80;99.90
7388;DHT22;3735;50.136;11.062;2023-12-07T11:23:36;6.20;99.90
7388;DHT22;3735;50.136;11.062;2023-12-07T11:26:02;6.50;99.90
7388;DHT22;3735;50.136;11.062;2023-12-07T11:28:38;7.00;99.90
7388;DHT22;3735;50.136;11.062;2023-12-07T11:31:10;7.20;99.90
7388;DHT22;3735;50.136;11.062;2023-12-07T11:33:41;7.10;99.90
7388;DHT22;3735;50.136;11.062;2023-12-07T11:36:09;6.60;99.90
7388;DHT22;3735;50.136;11.062;2023-12-07T11:41:51;6.10;99.90
7388;DHT22;3735;50.136;11.062;2023-12-07T11:44:20;6.30;99.90
7388;DHT22;3735;50.136;11.062;2023-12-07T11:46:58;8.80;99.90
7388;DHT22;3735;50.136;11.062;2023-12-07T11:49:24;11.60;99.90
7388;DHT22;3735;50.136;11.062;2023-12-07T11:51:50;12.20;99.90
7388;DHT22;3735;50.136;11.062;2023-12-07T11:54:15;11.70;99.90
7388;DHT22;3735;50.136;11.062;2023-12-07T11:56:42;12.60;99.90
7388;DHT22;3735;50.136;11.062;2023-12-07T11:59:11;11.90;99.90
7388;DHT22;3735;50.136;11.062;2023-12-07T12:01:38;11.30;99.90
7388;DHT22;3735;50.136;11.062;2023-12-07T12:04:05;11.80;99.90
7388;DHT22;3735;50.136;11.062;2023-12-07T12:06:31;12.90;99.90
7388;DHT22;3735;50.136;11.062;2023-12-07T12:09:00;14.30;99.90
7388;DHT22;3735;50.136;11.062;2023-12-07T12:11:26;15.80;99.90
7388;DHT22;3735;50.136;11.062;2023-12-07T12:13:52;17.20;99.90
7388;DHT22;3735;50.136;11.062;2023-12-07T12:16:18;18.40;99.90
7388;DHT22;3735;50.136;11.062;2023-12-07T12:18:44;18.90;99.90
7388;DHT22;3735;50.136;11.062;2023-12-07T12:21:10;19.70;99.90
7388;DHT22;3735;50.136;11.062;2023-12-07T12:23:36;20.00;99.90
7388;DHT22;3735;50.136;11.062;2023-12-07T12:26:03;18.40;99.90
7388;DHT22;3735;50.136;11.062;2023-12-07T12:28:30;15.90;99.90
7388;DHT22;3735;50.136;11.062;2023-12-07T12:30:57;13.70;99.90
7388;DHT22;3735;50.136;11.062;2023-12-07T12:33:24;11.90;99.90
7388;DHT22;3735;50.136;11.062;2023-12-07T12:36:10;10.50;99.90
7388;DHT22;3735;50.136;11.062;2023-12-07T12:38:37;9.20;99.90
7388;DHT22;3735;50.136;11.062;2023-12-07T12:41:04;8.40;99.90
7388;DHT22;3735;50.136;11.062;2023-12-07T12:43:33;7.70;99.90
7388;DHT22;3735;50.136;11.062;2023-12-07T12:45:59;7.40;99.90
7388;DHT22;3735;50.136;11.062;2023-12-07T12:48:25;7.20;99.90
7388;DHT22;3735;50.136;11.062;2023-12-07T12:50:51;7.20;99.90
7388;DHT22;3735;50.136;11.062;2023-12-07T12:53:17;7.00;99.90
7388;DHT22;3735;50.136;11.062;2023-12-07T12:55:43;7.50;99.90
7388;DHT22;3735;50.136;11.062;2023-12-07T12:58:12;7.80;99.90
7388;DHT22;3735;50.136;11.062;2023-12-07T13:00:40;7.80;99.90
7388;DHT22;3735;50.136;11.062;2023-12-07T13:03:10;7.90;99.90
7388;DHT22;3735;50.136;11.062;2023-12-07T13:05:38;7.60;99.90
7388;DHT22;3735;50.136;11.062;2023-12-07T13:08:04;7.30;99.90
7388;DHT22;3735;50.136;11.062;2023-12-07T13:10:30;7.10;99.90
7388;DHT22;3735;50.136;11.062;2023-12-07T13:12:57;6.80;99.90
7388;DHT22;3735;50.136;11.062;2023-12-07T13:15:23;6.50;99.90
7388;DHT22;3735;50.136;11.062;2023-12-07T13:17:52;6.20;99.90
7388;DHT22;3735;50.136;11.062;2023-12-07T13:20:18;5.90;99.90
7388;DHT22;3735;50.136;11.062;2023-12-07T13:22:43;5.60;99.90
7388;DHT22;3735;50.136;11.062;2023-12-07T13:25:10;5.30;99.90
7388;DHT22;3735;50.136;11.062;2023-12-07T13:27:38;5.10;99.90
7388;DHT22;3735;50.136;11.062;2023-12-07T13:30:06;4.80;99.90
7388;DHT22;3735;50.136;11.062;2023-12-07T13:32:33;4.70;99.90
7388;DHT22;3735;50.136;11.062;2023-12-07T13:35:02;4.60;99.90
7388;DHT22;3735;50.136;11.062;2023-12-07T13:37:29;4.60;99.90
7388;DHT22;3735;50.136;11.062;2023-12-07T13:39:55;4.50;99.90
7388;DHT22;3735;50.136;11.062;2023-12-07T13:42:27;4.40;99.90
7388;DHT22;3735;50.136;11.062;2023-12-07T13:44:57;4.20;99.90
7388;DHT22;3735;50.136;11.062;2023-12-07T13:47:24;4.00;99.90
7388;DHT22;3735;50.136;11.062;2023-12-07T13:49:56;3.80;99.90
7388;DHT22;3735;50.136;11.062;2023-12-07T13:52:22;3.60;99.90
7388;DHT22;3735;50.136;11.062;2023-12-07T13:54:48;3.50;99.90
7388;DHT22;3735;50.136;11.062;2023-12-07T13:57:15;3.40;99.90
7388;DHT22;3735;50.136;11.062;2023-12-07T13:59:41;3.40;99.90
7388;DHT22;3735;50.136;11.062;2023-12-07T14:02:07;3.40;99.90
7388;DHT22;3735;50.136;11.062;2023-12-07T14:04:34;3.50;99.90
7388;DHT22;3735;50.136;11.062;2023-12-07T14:07:16;3.50;99.90
7388;DHT22;3735;50.136;11.062;2023-12-07T14:09:46;3.60;99.90
7388;DHT22;3735;50.136;11.062;2023-12-07T14:12:13;3.60;99.90
7388;DHT22;3735;50.136;11.062;2023-12-07T14:14:40;3.60;99.90
7388;DHT22;3735;50.136;11.062;2023-12-07T14:17:13;3.60;99.90
7388;DHT22;3735;50.136;11.062;2023-12-07T14:19:41;3.70;99.90
7388;DHT22;3735;50.136;11.062;2023-12-07T14:22:07;3.80;99.90
7388;DHT22;3735;50.136;11.062;2023-12-07T14:24:36;3.90;99.90
7388;DHT22;3735;50.136;11.062;2023-12-07T14:27:02;3.90;99.90
7388;DHT22;3735;50.136;11.062;2023-12-07T14:29:32;3.80;99.90
7388;DHT22;3735;50.136;11.062;2023-12-07T14:31:59;3.70;99.90
7388;DHT22;3735;50.136;11.062;2023-12-07T14:34:26;3.50;99.90
7388;DHT22;3735;50.136;11.062;2023-12-07T14:36:53;3.20;99.90
7388;DHT22;3735;50.136;11.062;2023-12-07T14:39:19;2.80;99.90
7388;DHT22;3735;50.136;11.062;2023-12-07T14:41:47;2.50;99.90
7388;DHT22;3735;50.136;11.062;2023-12-07T14:44:15;2.30;99.90
7388;DHT22;3735;50.136;11.062;2023-12-07T14:46:46;2.10;99.90
7388;DHT22;3735;50.136;11.062;2023-12-07T14:49:13;2.00;99.90
7388;DHT22;3735;50.136;11.062;2023-12-07T14:51:40;1.80;99.90
7388;DHT22;3735;50.136;11.062;2023-12-07T14:54:07;1.60;99.90
7388;DHT22;3735;50.136;11.062;2023-12-07T14:56:36;1.20;99.90
7388;DHT22;3735;50.136;11.062;2023-12-07T14:59:03;0.90;99.90
7388;DHT22;3735;50.136;11.062;2023-12-07T15:01:29;0.60;99.90
7388;DHT22;3735;50.136;11.062;2023-12-07T15:03:56;0.40;99.90
7388;DHT22;3735;50.136;11.062;2023-12-07T15:06:23;0.20;99.90
7388;DHT22;3735;50.136;11.062;2023-12-07T15:08:50;-0.10;99.90
7388;DHT22;3735;50.136;11.062;2023-12-07T15:11:15;-0.30;99.90
7388;DHT22;3735;50.136;11.062;2023-12-07T15:13:42;-0.50;99.90
7388;DHT22;3735;50.136;11.062;2023-12-07T15:16:08;-0.70;99.90
7388;DHT22;3735;50.136;11.062;2023-12-07T15:18:35;-0.90;99.90
7388;DHT22;3735;50.136;11.062;2023-12-07T15:21:02;-1.00;99.90
7388;DHT22;3735;50.136;11.062;2023-12-07T15:23:31;-1.10;99.90
7388;DHT22;3735;50.136;11.062;2023-12-07T15:26:00;-1.30;99.90
7388;DHT22;3735;50.136;11.062;2023-12-07T15:28:28;-1.40;99.90
7388;DHT22;3735;50.136;11.062;2023-12-07T15:30:57;-1.50;99.90
7388;DHT22;3735;50.136;11.062;2023-12-07T15:33:23;-1.60;99.90
7388;DHT22;3735;50.136;11.062;2023-12-07T15:35:49;-1.60;99.90
7388;DHT22;3735;50.136;11.062;2023-12-07T15:38:17;-1.70;99.90
7388;DHT22;3735;50.136;11.062;2023-12-07T15:40:43;-1.70;99.90
7388;DHT22;3735;50.136;11.062;2023-12-07T15:43:09;-1.70;99.90
7388;DHT22;3735;50.136;11.062;2023-12-07T15:45:35;-1.70;99.90
7388;DHT22;3735;50.136;11.062;2023-12-07T15:48:01;-1.70;99.90
7388;DHT22;3735;50.136;11.062;2023-12-07T15:50:27;-1.60;99.90
7388;DHT22;3735;50.136;11.062;2023-12-07T15:52:53;-1.50;99.90
7388;DHT22;3735;50.136;11.062;2023-12-07T15:55:18;-1.30;99.90
7388;DHT22;3735;50.136;11.062;2023-12-07T15:57:44;-1.20;99.90
7388;DHT22;3735;50.136;11.062;2023-12-07T16:00:11;-1.10;99.90
7388;DHT22;3735;50.136;11.062;2023-12-07T16:02:37;-1.10;99.90
7388;DHT22;3735;50.136;11.062;2023-12-07T16:05:03;-1.20;99.90
7388;DHT22;3735;50.136;11.062;2023-12-07T16:07:32;-1.30;99.90